Wardell, Virginia
Current Conditions -  °F | °C
As of 12:35 AM on Monday 22 Dec 2014 (Local Time) from KJFZ Reporting Station
Clear Clear  
Wind Chill: 31°   Ceiling: Unl
Heat Index: 37°   Visibility: 10mi
Dew Point: 32°   Wind: 9mph
Humidity: 81%   Direction: 130°SE
Pressure: 30.08"   Gusts: NA
Location:  37.0714°N, 81.7762°W
Report Text: KJFZ 220535Z AUTO 13008KT 10SM CLR 03/00 A3008 RMK AO2 T00300000
Loading
Personal Weather Stations






























Interactive Weather Map New forecast layout! Learn more

10-Day Weather Forecast

Advertisements
Track Severe Weather on mobile